Catlin, Illinois
Current Conditions -  °F | °C
As of 4:35 AM on Wednesday 22 Oct 2014 (Local Time) from KDNV Reporting Station
Clear Clear  
Wind Chill: 35°   Ceiling: Unl
Heat Index: 35°   Visibility: 10mi
Dew Point: 34°   Wind: 0mph
Humidity: 94%   Direction: NA
Pressure: 30.25"   Gusts: NA
Location:  40.07°N, 87.7°W
Report Text: KDNV 220935Z AUTO 00000KT 10SM CLR 02/01 A3025 RMK AO2 T00190011
Loading
Personal Weather Stations






























Interactive Weather Map
Tropical Storm Tracking
New forecast layout! Learn more

10-Day Weather Forecast

Advertisements
Track Severe Weather on mobile